createdAt,value
2022-08-29T00:00:05.252Z,314
2022-08-29T00:00:57.018Z,312
2022-08-29T00:01:48.851Z,320
2022-08-29T00:02:40.686Z,306
2022-08-29T00:03:32.381Z,317
2022-08-29T00:04:24.222Z,338
2022-08-29T00:05:15.949Z,337
2022-08-29T00:06:07.709Z,316
2022-08-29T00:06:59.505Z,308
2022-08-29T00:07:51.298Z,326
2022-08-29T00:08:42.995Z,331
2022-08-29T00:09:34.839Z,324
2022-08-29T00:10:26.638Z,331
2022-08-29T00:11:18.386Z,324
2022-08-29T00:12:10.194Z,314
2022-08-29T00:13:01.952Z,319
2022-08-29T00:13:53.809Z,316
2022-08-29T00:14:45.513Z,322
2022-08-29T00:15:44.731Z,328
2022-08-29T00:16:29.152Z,324
2022-08-29T00:17:20.865Z,340
2022-08-29T00:18:12.806Z,325
2022-08-29T00:19:04.421Z,342
2022-08-29T00:19:56.202Z,318
2022-08-29T00:20:47.989Z,309
2022-08-29T00:21:39.759Z,314
2022-08-29T00:22:31.533Z,326
2022-08-29T00:23:23.233Z,304
2022-08-29T00:24:15.090Z,312
2022-08-29T00:25:06.853Z,306
2022-08-29T00:25:58.650Z,320
2022-08-29T00:26:50.409Z,323
2022-08-29T00:27:42.484Z,318
2022-08-29T00:28:33.959Z,315
2022-08-29T00:29:25.751Z,329
2022-08-29T00:30:17.527Z,333
2022-08-29T00:31:09.310Z,348
2022-08-29T00:32:01.160Z,332
2022-08-29T00:32:52.856Z,325
2022-08-29T00:33:44.619Z,318
2022-08-29T00:34:36.405Z,310
2022-08-29T00:35:28.170Z,305
2022-08-29T00:36:19.964Z,311
2022-08-29T00:37:11.699Z,312
2022-08-29T00:38:03.457Z,320
2022-08-29T00:38:55.262Z,300
2022-08-29T00:39:47.064Z,325
2022-08-29T00:40:38.974Z,329
2022-08-29T00:41:30.590Z,328
2022-08-29T00:42:22.347Z,317
2022-08-29T00:43:14.139Z,326
2022-08-29T00:44:05.914Z,336
2022-08-29T00:44:57.662Z,330
2022-08-29T00:45:49.494Z,320
2022-08-29T00:46:41.215Z,337
2022-08-29T00:47:32.976Z,321
2022-08-29T00:48:24.760Z,312
2022-08-29T00:49:16.479Z,310
2022-08-29T00:50:08.308Z,316
2022-08-29T00:51:00.081Z,322
2022-08-29T00:51:51.835Z,317
2022-08-29T00:52:43.602Z,313
2022-08-29T00:53:35.386Z,304
2022-08-29T00:54:27.140Z,306
2022-08-29T00:55:18.931Z,322
2022-08-29T00:56:10.689Z,309
2022-08-29T00:57:02.481Z,312
2022-08-29T00:57:54.224Z,313
2022-08-29T00:58:46.012Z,321
2022-08-29T00:59:37.770Z,351
2022-08-29T01:00:29.555Z,346
2022-08-29T01:01:21.350Z,353
2022-08-29T01:02:13.117Z,346
2022-08-29T01:03:04.830Z,355
2022-08-29T01:03:56.628Z,334
2022-08-29T01:04:48.388Z,349
2022-08-29T01:05:40.153Z,334
2022-08-29T01:06:31.967Z,331
2022-08-29T01:07:23.630Z,346
2022-08-29T01:08:15.677Z,333
2022-08-29T01:09:07.224Z,327
2022-08-29T01:09:59.005Z,339
2022-08-29T01:10:50.768Z,325
2022-08-29T01:11:42.517Z,310
2022-08-29T01:12:34.300Z,324
2022-08-29T01:13:26.060Z,334
2022-08-29T01:14:17.843Z,317
2022-08-29T01:15:09.581Z,315
2022-08-29T01:16:01.423Z,311
2022-08-29T01:16:53.162Z,327
2022-08-29T01:17:44.900Z,328
2022-08-29T01:18:36.664Z,315
2022-08-29T01:19:28.425Z,325
2022-08-29T01:20:20.173Z,300
2022-08-29T01:21:11.957Z,295
2022-08-29T01:22:03.630Z,295
2022-08-29T01:22:55.483Z,298
2022-08-29T01:23:47.234Z,307
2022-08-29T01:24:39.022Z,292
2022-08-29T01:25:30.755Z,301
2022-08-29T01:26:22.536Z,309
2022-08-29T01:27:14.300Z,297
2022-08-29T01:28:06.094Z,303
2022-08-29T01:28:57.816Z,302
2022-08-29T01:29:49.597Z,312
2022-08-29T01:30:41.259Z,284
2022-08-29T01:31:38.647Z,293
2022-08-29T01:32:24.933Z,301
2022-08-29T01:33:16.585Z,287
2022-08-29T01:34:08.394Z,303
2022-08-29T01:35:00.198Z,284
2022-08-29T01:35:51.938Z,306
2022-08-29T01:36:43.692Z,301
2022-08-29T01:37:35.468Z,287
2022-08-29T01:38:27.224Z,320
2022-08-29T01:39:18.981Z,293
2022-08-29T01:40:10.822Z,304
2022-08-29T01:41:02.507Z,311
2022-08-29T01:41:54.267Z,319
2022-08-29T01:42:46.023Z,308
2022-08-29T01:43:37.794Z,293
2022-08-29T01:44:29.535Z,302
2022-08-29T01:45:21.359Z,359
2022-08-29T01:46:13.129Z,348
2022-08-29T01:47:04.841Z,341
2022-08-29T01:47:56.573Z,329
2022-08-29T01:48:48.349Z,313
2022-08-29T01:49:40.838Z,308
2022-08-29T01:50:31.873Z,310
2022-08-29T01:51:23.556Z,302
2022-08-29T01:52:15.394Z,299
2022-08-29T01:53:07.155Z,313
2022-08-29T01:53:58.923Z,323
2022-08-29T01:54:50.693Z,309
2022-08-29T01:55:42.454Z,322
2022-08-29T01:56:34.203Z,330
2022-08-29T01:57:25.945Z,313
2022-08-29T01:58:17.693Z,300
2022-08-29T01:59:09.473Z,308
2022-08-29T02:00:01.211Z,294
2022-08-29T02:00:53.083Z,298
2022-08-29T02:01:44.809Z,270
2022-08-29T02:02:36.572Z,283
2022-08-29T02:03:28.264Z,289
2022-08-29T02:04:20.045Z,300
2022-08-29T02:05:11.761Z,337
2022-08-29T02:06:03.460Z,331
2022-08-29T02:06:55.295Z,342
2022-08-29T02:07:47.074Z,353
2022-08-29T02:08:38.797Z,346
2022-08-29T02:09:30.585Z,316
2022-08-29T02:10:22.300Z,322
2022-08-29T02:11:14.059Z,308
2022-08-29T02:12:05.823Z,305
2022-08-29T02:12:57.596Z,318
2022-08-29T02:13:49.322Z,296
2022-08-29T02:14:41.084Z,319
2022-08-29T02:15:32.849Z,300
2022-08-29T02:16:24.647Z,296
2022-08-29T02:17:16.330Z,315
2022-08-29T02:18:08.177Z,293
2022-08-29T02:18:59.849Z,302
2022-08-29T02:19:51.618Z,288
2022-08-29T02:20:43.359Z,300
2022-08-29T02:21:35.135Z,305
2022-08-29T02:22:26.889Z,298
2022-08-29T02:23:30.536Z,290
2022-08-29T02:24:24.536Z,302
2022-08-29T02:25:02.152Z,294
2022-08-29T02:25:53.884Z,287
2022-08-29T02:26:45.665Z,298
2022-08-29T02:27:37.411Z,302
2022-08-29T02:28:29.215Z,292
2022-08-29T02:29:20.921Z,298
2022-08-29T02:30:12.693Z,307
2022-08-29T02:31:04.527Z,314
2022-08-29T02:31:56.208Z,334
2022-08-29T02:32:47.941Z,330
2022-08-29T02:33:39.699Z,332
2022-08-29T02:34:31.447Z,326
2022-08-29T02:35:24.331Z,332
2022-08-29T02:36:14.954Z,338
2022-08-29T02:37:06.736Z,337
2022-08-29T02:37:58.455Z,340
2022-08-29T02:38:50.239Z,323
2022-08-29T02:39:41.965Z,324
2022-08-29T02:40:33.733Z,297
2022-08-29T02:41:25.468Z,291
2022-08-29T02:42:17.230Z,308
2022-08-29T02:43:08.950Z,297
2022-08-29T02:44:00.734Z,310
2022-08-29T02:44:52.459Z,316
2022-08-29T02:45:44.247Z,327
2022-08-29T02:46:36.190Z,339
2022-08-29T02:47:27.767Z,359
2022-08-29T02:48:19.499Z,380
2022-08-29T02:49:11.181Z,420
2022-08-29T02:50:02.978Z,398
2022-08-29T02:50:54.798Z,433
2022-08-29T02:51:46.559Z,406
2022-08-29T02:52:38.354Z,421
2022-08-29T02:53:30.109Z,401
2022-08-29T02:54:21.910Z,412
2022-08-29T02:55:13.673Z,407
2022-08-29T02:56:05.471Z,417
2022-08-29T02:56:57.151Z,403
2022-08-29T02:57:49.038Z,423
2022-08-29T02:58:40.841Z,425
2022-08-29T02:59:32.616Z,425
2022-08-29T03:00:24.565Z,433
2022-08-29T03:01:16.246Z,421
2022-08-29T03:02:08.012Z,420
2022-08-29T03:02:59.776Z,428
2022-08-29T03:03:51.602Z,436
2022-08-29T03:04:43.285Z,439
2022-08-29T03:05:35.150Z,464
2022-08-29T03:06:26.974Z,463
2022-08-29T03:07:18.745Z,457
2022-08-29T03:08:10.569Z,469
2022-08-29T03:09:02.371Z,439
2022-08-29T03:09:54.154Z,461
2022-08-29T03:10:45.955Z,454
2022-08-29T03:11:37.764Z,477
2022-08-29T03:12:29.541Z,458
2022-08-29T03:13:21.355Z,461
2022-08-29T03:14:13.127Z,487
2022-08-29T03:15:04.979Z,468
2022-08-29T03:15:56.813Z,472
2022-08-29T03:16:48.571Z,468
2022-08-29T03:17:40.353Z,481
2022-08-29T03:18:32.178Z,485
2022-08-29T03:19:23.940Z,472
2022-08-29T03:20:15.789Z,488
2022-08-29T03:21:07.585Z,502
2022-08-29T03:21:59.390Z,503
2022-08-29T03:22:51.193Z,486
2022-08-29T03:23:43.005Z,502
2022-08-29T03:24:34.796Z,491
2022-08-29T03:25:26.613Z,495
2022-08-29T03:26:18.409Z,484
2022-08-29T03:27:10.237Z,472
2022-08-29T03:28:02.039Z,480
2022-08-29T03:28:53.771Z,484
2022-08-29T03:29:45.634Z,495
2022-08-29T03:30:37.461Z,507
2022-08-29T03:31:29.291Z,501
2022-08-29T03:32:21.085Z,501
2022-08-29T03:33:12.870Z,491
2022-08-29T03:34:04.728Z,514
2022-08-29T03:34:56.528Z,493
2022-08-29T03:35:48.304Z,477
2022-08-29T03:36:40.109Z,474
2022-08-29T03:37:31.918Z,478
2022-08-29T03:38:23.654Z,480
2022-08-29T03:39:15.530Z,490
2022-08-29T03:40:07.382Z,501
2022-08-29T03:40:59.145Z,503
2022-08-29T03:41:50.943Z,495
2022-08-29T03:42:42.770Z,485
2022-08-29T03:43:34.579Z,473
2022-08-29T03:44:26.392Z,468
2022-08-29T03:45:18.176Z,477
2022-08-29T03:46:10.031Z,484
2022-08-29T03:47:01.819Z,479
2022-08-29T03:47:53.604Z,517
2022-08-29T03:48:45.406Z,506
2022-08-29T03:49:37.221Z,507
2022-08-29T03:50:29.036Z,519
2022-08-29T03:51:20.850Z,512
2022-08-29T03:52:12.640Z,534
2022-08-29T03:53:04.473Z,521
2022-08-29T03:53:56.272Z,505
2022-08-29T03:54:48.096Z,532
2022-08-29T03:55:39.888Z,528
2022-08-29T03:56:31.717Z,527
2022-08-29T03:57:23.420Z,507
2022-08-29T03:58:15.686Z,509
2022-08-29T03:59:07.169Z,504
2022-08-29T03:59:58.964Z,525
2022-08-29T04:00:50.765Z,496
2022-08-29T04:01:42.668Z,520
2022-08-29T04:02:34.418Z,525
2022-08-29T04:03:26.565Z,521
2022-08-29T04:04:18.005Z,530
2022-08-29T04:05:09.891Z,515
2022-08-29T04:06:01.639Z,517
2022-08-29T04:06:53.378Z,509
2022-08-29T04:07:45.245Z,520
2022-08-29T04:08:37.083Z,521
2022-08-29T04:09:28.880Z,523
2022-08-29T04:10:20.704Z,546
2022-08-29T04:11:12.490Z,547
2022-08-29T04:12:04.333Z,535
2022-08-29T04:12:56.124Z,544
2022-08-29T04:13:47.936Z,535
2022-08-29T04:14:39.745Z,552
2022-08-29T04:15:31.563Z,581
2022-08-29T04:16:23.492Z,582
2022-08-29T04:17:15.185Z,607
2022-08-29T04:18:07.074Z,725
2022-08-29T04:18:58.816Z,609
2022-08-29T04:19:50.633Z,574
2022-08-29T04:20:42.464Z,507
2022-08-29T04:21:34.195Z,467
2022-08-29T04:22:26.078Z,434
2022-08-29T04:23:17.890Z,403
2022-08-29T04:24:09.734Z,421
2022-08-29T04:25:01.505Z,383
2022-08-29T04:26:02.974Z,396
2022-08-29T04:26:45.135Z,395
2022-08-29T04:27:36.966Z,399
2022-08-29T04:28:28.760Z,398
2022-08-29T04:29:20.574Z,390
2022-08-29T04:30:12.372Z,402
2022-08-29T04:31:04.166Z,385
2022-08-29T04:31:55.986Z,395
2022-08-29T04:32:47.806Z,384
2022-08-29T04:33:39.635Z,362
2022-08-29T04:34:31.403Z,360
2022-08-29T04:35:23.194Z,353
2022-08-29T04:36:15.172Z,348
2022-08-29T04:37:06.802Z,332
2022-08-29T04:37:58.610Z,350
2022-08-29T04:38:50.389Z,376
2022-08-29T04:39:42.215Z,363
2022-08-29T04:40:34.191Z,365
2022-08-29T04:41:25.794Z,389
2022-08-29T04:42:20.181Z,413
2022-08-29T04:43:09.396Z,385
2022-08-29T04:44:01.197Z,362
2022-08-29T04:44:53.002Z,345
2022-08-29T04:45:44.790Z,333
2022-08-29T04:46:36.728Z,340
2022-08-29T04:47:28.363Z,347
2022-08-29T04:48:20.179Z,335
2022-08-29T04:49:11.901Z,323
2022-08-29T04:50:03.689Z,313
2022-08-29T04:50:55.546Z,333
2022-08-29T04:51:47.350Z,320
2022-08-29T04:52:39.144Z,327
2022-08-29T04:53:30.947Z,327
2022-08-29T04:54:22.725Z,327
2022-08-29T04:55:19.470Z,348
2022-08-29T04:56:06.316Z,328
2022-08-29T04:56:58.108Z,322
2022-08-29T04:57:49.897Z,321
2022-08-29T04:58:41.632Z,340
2022-08-29T04:59:33.455Z,357
2022-08-29T05:00:25.313Z,357
2022-08-29T05:01:17.085Z,355
2022-08-29T05:02:08.873Z,344
2022-08-29T05:03:00.737Z,350
2022-08-29T05:03:52.484Z,362
2022-08-29T05:04:44.248Z,371
2022-08-29T05:05:36.040Z,393
2022-08-29T05:06:27.834Z,409
2022-08-29T05:07:19.636Z,473
2022-08-29T05:08:11.440Z,455
2022-08-29T05:09:03.215Z,460
2022-08-29T05:09:55.009Z,445
2022-08-29T05:10:46.800Z,433
2022-08-29T05:11:38.567Z,405
2022-08-29T05:12:30.376Z,425
2022-08-29T05:13:22.147Z,432
2022-08-29T05:14:13.903Z,412
2022-08-29T05:15:05.728Z,388
2022-08-29T05:15:57.629Z,387
2022-08-29T05:16:49.309Z,379
2022-08-29T05:17:41.128Z,372
2022-08-29T05:18:32.880Z,377
2022-08-29T05:19:24.713Z,375
2022-08-29T05:20:16.478Z,351
2022-08-29T05:21:08.273Z,353
2022-08-29T05:22:00.076Z,344
2022-08-29T05:22:51.849Z,336
2022-08-29T05:23:43.567Z,353
2022-08-29T05:24:35.423Z,350
2022-08-29T05:25:27.190Z,327
2022-08-29T05:26:19.021Z,322
2022-08-29T05:27:10.767Z,322
2022-08-29T05:28:02.585Z,333
2022-08-29T05:28:54.253Z,331
2022-08-29T05:29:46.158Z,343
2022-08-29T05:30:37.922Z,400
2022-08-29T05:31:29.829Z,417
2022-08-29T05:32:21.419Z,420
2022-08-29T05:33:13.296Z,402
2022-08-29T05:34:25.566Z,390
2022-08-29T05:34:56.885Z,383
2022-08-29T05:35:48.654Z,361
2022-08-29T05:36:40.451Z,349
2022-08-29T05:37:32.232Z,332
2022-08-29T05:38:23.950Z,339
2022-08-29T05:39:15.807Z,342
2022-08-29T05:40:07.665Z,354
2022-08-29T05:40:59.379Z,354
2022-08-29T05:41:51.195Z,350
2022-08-29T05:42:42.945Z,340
2022-08-29T05:43:34.740Z,327
2022-08-29T05:44:26.514Z,351
2022-08-29T05:45:18.322Z,365
2022-08-29T05:46:10.258Z,390
2022-08-29T05:47:01.908Z,415
2022-08-29T05:47:53.606Z,415
2022-08-29T05:48:45.468Z,411
2022-08-29T05:49:37.262Z,381
2022-08-29T05:50:29.056Z,371
2022-08-29T05:51:20.850Z,352
2022-08-29T05:52:12.637Z,359
2022-08-29T05:53:04.411Z,350
2022-08-29T05:53:56.215Z,344
2022-08-29T05:54:48.017Z,359
2022-08-29T05:55:39.788Z,351
2022-08-29T05:56:31.565Z,341
2022-08-29T05:57:23.369Z,353
2022-08-29T05:58:15.373Z,335
2022-08-29T05:59:06.961Z,352
2022-08-29T05:59:58.743Z,341
2022-08-29T06:00:50.535Z,355
2022-08-29T06:01:42.303Z,371
2022-08-29T06:02:34.173Z,341
2022-08-29T06:03:26.013Z,346
2022-08-29T06:04:17.717Z,325
2022-08-29T06:05:10.634Z,330
2022-08-29T06:06:01.294Z,341
2022-08-29T06:06:53.080Z,344
2022-08-29T06:07:44.884Z,346
2022-08-29T06:08:36.645Z,347
2022-08-29T06:09:28.462Z,341
2022-08-29T06:10:20.240Z,333
2022-08-29T06:11:12.046Z,330
2022-08-29T06:12:03.761Z,338
2022-08-29T06:12:55.619Z,348
2022-08-29T06:13:47.412Z,369
2022-08-29T06:14:39.220Z,374
2022-08-29T06:15:31.079Z,396
2022-08-29T06:16:22.833Z,386
2022-08-29T06:17:14.584Z,391
2022-08-29T06:18:06.399Z,381
2022-08-29T06:18:58.191Z,379
2022-08-29T06:19:49.997Z,360
2022-08-29T06:20:41.838Z,355
2022-08-29T06:21:33.577Z,364
2022-08-29T06:22:25.347Z,362
2022-08-29T06:23:17.083Z,383
2022-08-29T06:24:08.948Z,392
2022-08-29T06:25:00.745Z,398
2022-08-29T06:25:52.525Z,391
2022-08-29T06:26:44.278Z,408
2022-08-29T06:27:36.125Z,404
2022-08-29T06:28:27.947Z,401
2022-08-29T06:29:19.733Z,410
2022-08-29T06:30:11.520Z,426
2022-08-29T06:31:03.407Z,436
2022-08-29T06:31:55.135Z,458
2022-08-29T06:32:46.911Z,446
2022-08-29T06:33:38.737Z,440
2022-08-29T06:34:30.511Z,431
2022-08-29T06:35:22.355Z,450
2022-08-29T06:36:14.078Z,449
2022-08-29T06:37:05.951Z,417
2022-08-29T06:37:57.741Z,398
2022-08-29T06:38:49.546Z,403
2022-08-29T06:39:41.341Z,390
2022-08-29T06:40:33.215Z,394
2022-08-29T06:41:24.985Z,372
2022-08-29T06:42:16.784Z,375
2022-08-29T06:43:08.564Z,407
2022-08-29T06:44:00.366Z,418
2022-08-29T06:44:52.168Z,411
2022-08-29T06:45:43.905Z,434
2022-08-29T06:46:35.816Z,429
2022-08-29T06:47:27.601Z,438
2022-08-29T06:48:19.393Z,420
2022-08-29T06:49:11.201Z,437
2022-08-29T06:50:02.919Z,445
2022-08-29T06:50:54.796Z,423
2022-08-29T06:51:46.602Z,409
2022-08-29T06:52:38.418Z,405
2022-08-29T06:53:32.104Z,411
2022-08-29T06:54:22.009Z,413
2022-08-29T06:55:13.730Z,417
2022-08-29T06:56:05.611Z,419
2022-08-29T06:56:57.417Z,447
2022-08-29T06:57:49.211Z,426
2022-08-29T06:58:41.000Z,420
2022-08-29T06:59:32.815Z,442
2022-08-29T07:00:24.709Z,444
2022-08-29T07:01:16.501Z,457
2022-08-29T07:02:08.280Z,443
2022-08-29T07:03:00.107Z,453
2022-08-29T07:03:51.820Z,438
2022-08-29T07:04:43.663Z,424
2022-08-29T07:05:35.435Z,458
2022-08-29T07:06:27.259Z,456
2022-08-29T07:07:19.038Z,452
2022-08-29T07:08:10.878Z,483
2022-08-29T07:09:02.652Z,469
2022-08-29T07:09:54.420Z,462
2022-08-29T07:10:46.287Z,441
2022-08-29T07:11:41.091Z,427
2022-08-29T07:12:29.892Z,437
2022-08-29T07:13:21.729Z,444
2022-08-29T07:14:13.510Z,429
2022-08-29T07:15:05.327Z,433
2022-08-29T07:15:57.217Z,444
2022-08-29T07:16:48.958Z,455
2022-08-29T07:17:40.728Z,457
2022-08-29T07:18:32.563Z,451
2022-08-29T07:19:24.273Z,472
2022-08-29T07:20:16.177Z,485
2022-08-29T07:21:07.966Z,501
2022-08-29T07:21:59.796Z,487
2022-08-29T07:22:51.578Z,469
2022-08-29T07:23:43.423Z,484
2022-08-29T07:24:35.212Z,492
2022-08-29T07:25:27.054Z,493
2022-08-29T07:26:18.828Z,485
2022-08-29T07:27:10.678Z,492
2022-08-29T07:28:02.459Z,502
2022-08-29T07:28:54.212Z,494
2022-08-29T07:29:48.841Z,488
2022-08-29T07:30:38.035Z,483
2022-08-29T07:31:31.015Z,469
2022-08-29T07:32:25.652Z,469
2022-08-29T07:33:13.490Z,479
2022-08-29T07:34:05.134Z,494
2022-08-29T07:34:56.968Z,494
2022-08-29T07:35:48.827Z,495
2022-08-29T07:36:40.624Z,499
2022-08-29T07:37:32.446Z,492
2022-08-29T07:38:24.120Z,439
2022-08-29T07:39:16.060Z,413
2022-08-29T07:40:07.931Z,419
2022-08-29T07:40:59.680Z,448
2022-08-29T07:41:51.481Z,460
2022-08-29T07:42:43.278Z,492
2022-08-29T07:43:35.098Z,491
2022-08-29T07:44:26.903Z,513
2022-08-29T07:45:18.735Z,486
2022-08-29T07:46:10.629Z,494
2022-08-29T07:47:02.360Z,488
2022-08-29T07:47:54.119Z,489
2022-08-29T07:48:45.969Z,474
2022-08-29T07:49:41.598Z,484
2022-08-29T07:50:29.602Z,450
2022-08-29T07:51:21.428Z,456
2022-08-29T07:52:13.241Z,473
2022-08-29T07:53:05.051Z,482
2022-08-29T07:53:56.871Z,508
2022-08-29T07:54:48.683Z,526
2022-08-29T07:55:40.529Z,508
2022-08-29T07:56:37.043Z,530
2022-08-29T07:57:24.042Z,499
2022-08-29T07:58:16.232Z,502
2022-08-29T07:59:07.770Z,520
2022-08-29T07:59:59.583Z,571
2022-08-29T08:00:51.386Z,654
2022-08-29T08:01:43.279Z,1032
2022-08-29T08:02:35.036Z,1052
2022-08-29T08:03:26.852Z,1007
2022-08-29T08:04:19.166Z,1054
2022-08-29T08:05:10.476Z,866
2022-08-29T08:06:03.939Z,743
2022-08-29T08:06:54.109Z,686
2022-08-29T08:07:45.893Z,687
2022-08-29T08:08:37.758Z,627
2022-08-29T08:09:29.522Z,600
2022-08-29T08:10:21.373Z,593
2022-08-29T08:11:13.156Z,612
2022-08-29T08:12:08.158Z,584
2022-08-29T08:12:56.788Z,569
2022-08-29T08:13:48.651Z,567
2022-08-29T08:14:40.424Z,560
2022-08-29T08:15:32.264Z,565
2022-08-29T08:16:24.028Z,565
2022-08-29T08:17:15.877Z,560
2022-08-29T08:18:07.707Z,621
2022-08-29T08:18:59.521Z,698
2022-08-29T08:19:51.312Z,620
2022-08-29T08:20:43.136Z,539
2022-08-29T08:21:34.932Z,579
2022-08-29T08:22:26.793Z,620
2022-08-29T08:23:18.973Z,574
2022-08-29T08:24:10.424Z,575
2022-08-29T08:25:02.243Z,594
2022-08-29T08:25:54.007Z,584
2022-08-29T08:26:45.843Z,562
2022-08-29T08:27:41.259Z,549
2022-08-29T08:28:29.475Z,580
2022-08-29T08:29:21.314Z,589
2022-08-29T08:30:13.099Z,600
2022-08-29T08:31:06.464Z,550
2022-08-29T08:31:56.743Z,523
2022-08-29T08:32:52.745Z,474
2022-08-29T08:33:40.389Z,493
2022-08-29T08:34:35.701Z,473
2022-08-29T08:35:23.906Z,470
2022-08-29T08:36:15.817Z,493
2022-08-29T08:37:07.630Z,508
2022-08-29T08:37:59.455Z,527
2022-08-29T08:38:51.247Z,530
2022-08-29T08:39:43.081Z,517
2022-08-29T08:40:34.933Z,523
2022-08-29T08:41:27.407Z,530
2022-08-29T08:42:21.778Z,541
2022-08-29T08:43:10.345Z,539
2022-08-29T08:44:02.182Z,580
2022-08-29T08:44:53.890Z,533
2022-08-29T08:45:45.839Z,513
2022-08-29T08:46:37.634Z,514
2022-08-29T08:47:29.444Z,540
2022-08-29T08:48:21.260Z,518
2022-08-29T08:49:13.085Z,508
2022-08-29T08:50:04.905Z,487
2022-08-29T08:50:56.717Z,505
2022-08-29T08:51:48.528Z,491
2022-08-29T08:52:40.358Z,516
2022-08-29T08:53:32.191Z,507
2022-08-29T08:54:23.936Z,507
2022-08-29T08:55:15.822Z,504
2022-08-29T08:56:07.684Z,498
2022-08-29T08:57:02.137Z,532
2022-08-29T08:57:51.288Z,515
2022-08-29T08:58:43.123Z,548
2022-08-29T08:59:34.922Z,552
2022-08-29T09:00:26.755Z,554
2022-08-29T09:01:18.674Z,558
2022-08-29T09:02:10.477Z,581
2022-08-29T09:03:02.212Z,567
2022-08-29T09:03:53.977Z,576
2022-08-29T09:04:45.865Z,596
2022-08-29T09:05:37.718Z,615
2022-08-29T09:06:29.523Z,608
2022-08-29T09:07:21.386Z,614
2022-08-29T09:08:13.172Z,645
2022-08-29T09:09:05.036Z,621
2022-08-29T09:09:56.842Z,639
2022-08-29T09:10:48.702Z,613
2022-08-29T09:11:40.492Z,631
2022-08-29T09:12:32.353Z,651
2022-08-29T09:13:24.115Z,659
2022-08-29T09:14:16.021Z,652
2022-08-29T09:15:07.833Z,645
2022-08-29T09:15:59.681Z,652
2022-08-29T09:16:51.510Z,649
2022-08-29T09:17:43.344Z,654
2022-08-29T09:18:35.407Z,649
2022-08-29T09:19:27.010Z,656
2022-08-29T09:20:18.993Z,678
2022-08-29T09:21:37.090Z,679
2022-08-29T09:22:02.502Z,681
2022-08-29T09:22:54.290Z,681
2022-08-29T09:23:46.185Z,699
2022-08-29T09:24:38.013Z,705
2022-08-29T09:25:29.831Z,725
2022-08-29T09:26:21.732Z,707
2022-08-29T09:27:13.513Z,780
2022-08-29T09:28:05.375Z,686
2022-08-29T09:28:57.187Z,753
2022-08-29T09:29:49.044Z,699
2022-08-29T09:30:40.910Z,684
2022-08-29T09:31:32.788Z,670
2022-08-29T09:32:24.624Z,678
2022-08-29T09:33:16.592Z,676
2022-08-29T09:34:08.220Z,707
2022-08-29T09:35:09.492Z,753
2022-08-29T09:35:51.938Z,820
2022-08-29T09:36:47.816Z,862
2022-08-29T09:37:35.590Z,913
2022-08-29T09:38:27.432Z,947
2022-08-29T09:39:19.260Z,905
2022-08-29T09:40:11.344Z,941
2022-08-29T09:41:02.927Z,1064
2022-08-29T09:41:54.715Z,1009
2022-08-29T09:42:46.629Z,1084
2022-08-29T09:43:38.467Z,1120
2022-08-29T09:44:30.304Z,1108
2022-08-29T09:45:22.151Z,1116
2022-08-29T09:46:14.093Z,1098
2022-08-29T09:47:05.852Z,1058
2022-08-29T09:47:57.686Z,1025
2022-08-29T09:48:49.521Z,1124
2022-08-29T09:49:41.374Z,1150
2022-08-29T09:50:33.233Z,1112
2022-08-29T09:51:25.053Z,1160
2022-08-29T09:52:16.889Z,1112
2022-08-29T09:53:11.693Z,1114
2022-08-29T09:54:00.594Z,1118
2022-08-29T09:54:52.427Z,1203
2022-08-29T09:55:45.237Z,1098
2022-08-29T09:56:36.109Z,1205
2022-08-29T09:57:27.963Z,1189
2022-08-29T09:58:19.958Z,1191
2022-08-29T09:59:11.656Z,1130
2022-08-29T10:00:03.426Z,1169
2022-08-29T10:00:55.412Z,1223
2022-08-29T10:01:47.307Z,1187
2022-08-29T10:02:39.109Z,1215
2022-08-29T10:03:30.863Z,1219
2022-08-29T10:04:22.749Z,1304
2022-08-29T10:05:14.471Z,1257
2022-08-29T10:06:06.435Z,1257
2022-08-29T10:06:58.263Z,1251
2022-08-29T10:07:50.129Z,1183
2022-08-29T10:08:41.939Z,1245
2022-08-29T10:09:33.827Z,1225
2022-08-29T10:10:25.629Z,1279
2022-08-29T10:11:17.440Z,1291
2022-08-29T10:12:09.333Z,1267
2022-08-29T10:13:01.196Z,1247
2022-08-29T10:13:53.014Z,1233
2022-08-29T10:14:50.012Z,1259
2022-08-29T10:15:49.340Z,1293
2022-08-29T10:16:28.683Z,1265
2022-08-29T10:17:20.409Z,1263
2022-08-29T10:18:12.260Z,1199
2022-08-29T10:19:04.004Z,1163
2022-08-29T10:19:55.949Z,1175
2022-08-29T10:20:47.825Z,1219
2022-08-29T10:21:39.663Z,1209
2022-08-29T10:22:31.486Z,1259
2022-08-29T10:23:23.346Z,1189
2022-08-29T10:24:17.325Z,1171
2022-08-29T10:25:07.041Z,1134
2022-08-29T10:25:58.862Z,1148
2022-08-29T10:26:50.719Z,1173
2022-08-29T10:27:42.556Z,1201
2022-08-29T10:28:34.334Z,1229
2022-08-29T10:29:29.638Z,1177
2022-08-29T10:30:18.122Z,1249
2022-08-29T10:31:09.947Z,1209
2022-08-29T10:32:01.896Z,1304
2022-08-29T10:32:53.645Z,1283
2022-08-29T10:33:45.518Z,1310
2022-08-29T10:34:37.341Z,1277
2022-08-29T10:35:29.212Z,1281
2022-08-29T10:36:21.036Z,1257
2022-08-29T10:37:12.887Z,1287
2022-08-29T10:38:04.657Z,1366
2022-08-29T10:38:56.583Z,1318
2022-08-29T10:39:48.414Z,1281
2022-08-29T10:40:43.171Z,1267
2022-08-29T10:41:32.108Z,1308
2022-08-29T10:42:23.988Z,1342
2022-08-29T10:43:16.049Z,1291
2022-08-29T10:44:07.748Z,1352
2022-08-29T10:44:59.515Z,1289
2022-08-29T10:45:51.479Z,1293
2022-08-29T10:46:43.213Z,1354
2022-08-29T10:47:35.065Z,1356
2022-08-29T10:48:26.920Z,1320
2022-08-29T10:49:18.776Z,1400
2022-08-29T10:50:17.185Z,1424
2022-08-29T10:51:02.465Z,1449
2022-08-29T10:51:54.241Z,1453
2022-08-29T10:52:46.155Z,1408
2022-08-29T10:53:38.015Z,1360
2022-08-29T10:54:29.868Z,1360
2022-08-29T10:55:21.715Z,1342
2022-08-29T10:56:13.569Z,1394
2022-08-29T10:57:05.412Z,1344
2022-08-29T10:57:57.257Z,1384
2022-08-29T10:58:49.116Z,1380
2022-08-29T10:59:40.974Z,1374
2022-08-29T11:00:32.797Z,1414
2022-08-29T11:01:24.714Z,1380
2022-08-29T11:02:16.546Z,1398
2022-08-29T11:03:08.377Z,1372
2022-08-29T11:04:00.275Z,1390
2022-08-29T11:04:52.082Z,1435
2022-08-29T11:05:43.934Z,1386
2022-08-29T11:07:27.619Z,1412
2022-08-29T11:08:19.683Z,1380
2022-08-29T11:09:11.342Z,1408
2022-08-29T11:10:03.113Z,1414
2022-08-29T11:10:55.039Z,1390
2022-08-29T11:11:46.895Z,1475
2022-08-29T11:12:38.742Z,1408
2022-08-29T11:13:30.610Z,1430
2022-08-29T11:14:22.435Z,1398
2022-08-29T11:15:14.231Z,1404
2022-08-29T11:16:06.216Z,1418
2022-08-29T11:16:58.012Z,1398
2022-08-29T11:17:49.838Z,1505
2022-08-29T11:18:41.704Z,1519
2022-08-29T11:19:33.542Z,1509
2022-08-29T11:20:25.420Z,1392
2022-08-29T11:21:17.278Z,1412
2022-08-29T11:22:09.108Z,1455
2022-08-29T11:23:00.950Z,1428
2022-08-29T11:23:52.817Z,1437
2022-08-29T11:24:47.216Z,1455
2022-08-29T11:25:36.514Z,1475
2022-08-29T11:26:28.345Z,1428
2022-08-29T11:27:20.222Z,1449
2022-08-29T11:28:12.032Z,1364
2022-08-29T11:29:03.915Z,1336
2022-08-29T11:29:55.740Z,1259
2022-08-29T11:30:48.236Z,1165
2022-08-29T11:31:39.503Z,1175
2022-08-29T11:32:31.320Z,1106
2022-08-29T11:33:23.162Z,1076
2022-08-29T11:34:14.995Z,1253
2022-08-29T11:35:06.858Z,1346
2022-08-29T11:36:03.784Z,1350
2022-08-29T11:36:50.565Z,1342
2022-08-29T11:37:42.427Z,1326
2022-08-29T11:38:34.164Z,1366
2022-08-29T11:39:26.130Z,1437
2022-08-29T11:40:18.159Z,1350
2022-08-29T11:41:29.876Z,1388
2022-08-29T11:42:01.747Z,1386
2022-08-29T11:42:53.659Z,1360
2022-08-29T11:43:45.387Z,1352
2022-08-29T11:44:37.236Z,1336
2022-08-29T11:45:37.586Z,1275
2022-08-29T11:46:20.980Z,1360
2022-08-29T11:47:12.832Z,1277
2022-08-29T11:48:04.570Z,1277
2022-08-29T11:48:59.707Z,1275